sensor_id;sensor_type;location;lat;lon;timestamp;P1;durP1;ratioP1;P2;durP2;ratioP2
41333;SDS011;27078;46.428;6.256;2023-10-19T00:01:20;36.13;;;23.15;;
41333;SDS011;27078;46.428;6.256;2023-10-19T00:03:49;35.17;;;22.40;;
41333;SDS011;27078;46.428;6.256;2023-10-19T00:06:14;34.33;;;22.13;;
41333;SDS011;27078;46.428;6.256;2023-10-19T00:08:43;30.73;;;20.58;;
41333;SDS011;27078;46.428;6.256;2023-10-19T00:11:09;39.03;;;23.58;;
41333;SDS011;27078;46.428;6.256;2023-10-19T00:13:46;33.70;;;22.55;;
41333;SDS011;27078;46.428;6.256;2023-10-19T00:16:15;33.13;;;21.85;;
41333;SDS011;27078;46.428;6.256;2023-10-19T00:18:47;35.45;;;23.60;;
41333;SDS011;27078;46.428;6.256;2023-10-19T00:21:13;36.85;;;22.85;;
41333;SDS011;27078;46.428;6.256;2023-10-19T00:23:46;36.58;;;22.98;;
41333;SDS011;27078;46.428;6.256;2023-10-19T00:26:12;35.45;;;23.05;;
41333;SDS011;27078;46.428;6.256;2023-10-19T00:28:42;32.20;;;21.95;;
41333;SDS011;27078;46.428;6.256;2023-10-19T00:31:11;35.33;;;22.02;;
41333;SDS011;27078;46.428;6.256;2023-10-19T00:33:37;35.78;;;22.77;;
41333;SDS011;27078;46.428;6.256;2023-10-19T00:36:08;34.17;;;22.17;;
41333;SDS011;27078;46.428;6.256;2023-10-19T00:38:38;34.80;;;22.25;;
41333;SDS011;27078;46.428;6.256;2023-10-19T00:41:08;32.17;;;21.50;;
41333;SDS011;27078;46.428;6.256;2023-10-19T00:43:38;32.38;;;21.58;;
41333;SDS011;27078;46.428;6.256;2023-10-19T00:46:08;35.53;;;22.17;;
41333;SDS011;27078;46.428;6.256;2023-10-19T00:48:41;32.17;;;21.60;;
41333;SDS011;27078;46.428;6.256;2023-10-19T00:51:11;30.75;;;21.00;;
41333;SDS011;27078;46.428;6.256;2023-10-19T00:53:56;30.50;;;20.45;;
41333;SDS011;27078;46.428;6.256;2023-10-19T00:56:24;32.00;;;20.90;;
41333;SDS011;27078;46.428;6.256;2023-10-19T00:58:54;33.03;;;21.88;;
41333;SDS011;27078;46.428;6.256;2023-10-19T01:01:25;32.35;;;21.20;;
41333;SDS011;27078;46.428;6.256;2023-10-19T01:03:56;34.97;;;22.13;;
41333;SDS011;27078;46.428;6.256;2023-10-19T01:06:23;36.60;;;23.52;;
41333;SDS011;27078;46.428;6.256;2023-10-19T01:08:48;34.40;;;22.60;;
41333;SDS011;27078;46.428;6.256;2023-10-19T01:11:16;35.45;;;22.58;;
41333;SDS011;27078;46.428;6.256;2023-10-19T01:13:45;36.47;;;23.67;;
41333;SDS011;27078;46.428;6.256;2023-10-19T01:16:13;35.42;;;23.35;;
41333;SDS011;27078;46.428;6.256;2023-10-19T01:18:45;36.97;;;22.50;;
41333;SDS011;27078;46.428;6.256;2023-10-19T01:21:11;32.13;;;21.10;;
41333;SDS011;27078;46.428;6.256;2023-10-19T01:23:36;32.97;;;22.52;;
41333;SDS011;27078;46.428;6.256;2023-10-19T01:26:04;31.38;;;21.50;;
41333;SDS011;27078;46.428;6.256;2023-10-19T01:31:22;33.35;;;22.58;;
41333;SDS011;27078;46.428;6.256;2023-10-19T01:33:55;34.15;;;22.20;;
41333;SDS011;27078;46.428;6.256;2023-10-19T01:36:23;32.45;;;22.52;;
41333;SDS011;27078;46.428;6.256;2023-10-19T01:38:49;33.03;;;21.83;;
41333;SDS011;27078;46.428;6.256;2023-10-19T01:41:18;37.65;;;23.25;;
41333;SDS011;27078;46.428;6.256;2023-10-19T01:43:45;36.78;;;23.60;;
41333;SDS011;27078;46.428;6.256;2023-10-19T01:46:12;37.15;;;24.77;;
41333;SDS011;27078;46.428;6.256;2023-10-19T01:48:46;39.97;;;24.85;;
41333;SDS011;27078;46.428;6.256;2023-10-19T01:51:14;37.83;;;24.15;;
41333;SDS011;27078;46.428;6.256;2023-10-19T01:53:40;37.42;;;24.55;;
41333;SDS011;27078;46.428;6.256;2023-10-19T01:56:10;38.60;;;24.20;;
41333;SDS011;27078;46.428;6.256;2023-10-19T01:58:36;37.53;;;23.90;;
41333;SDS011;27078;46.428;6.256;2023-10-19T02:01:02;36.25;;;23.70;;
41333;SDS011;27078;46.428;6.256;2023-10-19T02:03:33;34.60;;;23.58;;
41333;SDS011;27078;46.428;6.256;2023-10-19T02:06:00;34.75;;;22.98;;
41333;SDS011;27078;46.428;6.256;2023-10-19T02:08:43;34.58;;;22.42;;
41333;SDS011;27078;46.428;6.256;2023-10-19T02:11:10;32.47;;;21.63;;
41333;SDS011;27078;46.428;6.256;2023-10-19T02:13:47;38.92;;;24.52;;
41333;SDS011;27078;46.428;6.256;2023-10-19T02:16:16;35.20;;;22.77;;
41333;SDS011;27078;46.428;6.256;2023-10-19T02:18:47;38.38;;;24.85;;
41333;SDS011;27078;46.428;6.256;2023-10-19T02:21:13;41.15;;;25.90;;
41333;SDS011;27078;46.428;6.256;2023-10-19T02:23:39;42.28;;;25.95;;
41333;SDS011;27078;46.428;6.256;2023-10-19T02:26:06;45.05;;;27.38;;
41333;SDS011;27078;46.428;6.256;2023-10-19T02:28:32;45.92;;;27.35;;
41333;SDS011;27078;46.428;6.256;2023-10-19T02:31:02;49.83;;;28.27;;
41333;SDS011;27078;46.428;6.256;2023-10-19T02:33:42;53.33;;;29.17;;
41333;SDS011;27078;46.428;6.256;2023-10-19T02:36:11;52.70;;;29.20;;
41333;SDS011;27078;46.428;6.256;2023-10-19T02:38:41;54.83;;;29.40;;
41333;SDS011;27078;46.428;6.256;2023-10-19T02:43:38;46.03;;;26.00;;
41333;SDS011;27078;46.428;6.256;2023-10-19T02:46:05;46.78;;;26.42;;
41333;SDS011;27078;46.428;6.256;2023-10-19T02:48:31;43.17;;;25.83;;
41333;SDS011;27078;46.428;6.256;2023-10-19T02:50:56;42.25;;;24.50;;
41333;SDS011;27078;46.428;6.256;2023-10-19T02:53:30;38.55;;;23.85;;
41333;SDS011;27078;46.428;6.256;2023-10-19T02:55:56;40.13;;;23.83;;
41333;SDS011;27078;46.428;6.256;2023-10-19T02:58:24;37.38;;;21.30;;
41333;SDS011;27078;46.428;6.256;2023-10-19T03:00:51;30.33;;;19.50;;
41333;SDS011;27078;46.428;6.256;2023-10-19T03:03:17;30.48;;;18.52;;
41333;SDS011;27078;46.428;6.256;2023-10-19T03:05:42;29.45;;;17.75;;
41333;SDS011;27078;46.428;6.256;2023-10-19T03:08:08;26.27;;;16.35;;
41333;SDS011;27078;46.428;6.256;2023-10-19T03:10:33;23.83;;;15.40;;
41333;SDS011;27078;46.428;6.256;2023-10-19T03:13:08;21.70;;;14.32;;
41333;SDS011;27078;46.428;6.256;2023-10-19T03:15:34;20.23;;;12.77;;
41333;SDS011;27078;46.428;6.256;2023-10-19T03:18:00;17.38;;;11.90;;
41333;SDS011;27078;46.428;6.256;2023-10-19T03:20:27;14.73;;;10.35;;
41333;SDS011;27078;46.428;6.256;2023-10-19T03:22:53;17.73;;;11.55;;
41333;SDS011;27078;46.428;6.256;2023-10-19T03:25:23;16.10;;;10.88;;
41333;SDS011;27078;46.428;6.256;2023-10-19T03:28:07;14.45;;;10.13;;
41333;SDS011;27078;46.428;6.256;2023-10-19T03:30:41;14.05;;;9.63;;
41333;SDS011;27078;46.428;6.256;2023-10-19T03:33:07;19.27;;;12.70;;
41333;SDS011;27078;46.428;6.256;2023-10-19T03:35:35;14.93;;;10.48;;
41333;SDS011;27078;46.428;6.256;2023-10-19T03:38:07;11.93;;;8.57;;
41333;SDS011;27078;46.428;6.256;2023-10-19T03:40:44;13.05;;;9.23;;
41333;SDS011;27078;46.428;6.256;2023-10-19T03:43:17;12.00;;;8.20;;
41333;SDS011;27078;46.428;6.256;2023-10-19T03:45:46;13.18;;;8.75;;
41333;SDS011;27078;46.428;6.256;2023-10-19T03:48:17;12.55;;;8.98;;
41333;SDS011;27078;46.428;6.256;2023-10-19T03:50:43;11.13;;;8.10;;
41333;SDS011;27078;46.428;6.256;2023-10-19T03:53:08;10.02;;;7.55;;
41333;SDS011;27078;46.428;6.256;2023-10-19T03:55:37;8.45;;;5.90;;
41333;SDS011;27078;46.428;6.256;2023-10-19T03:58:03;8.35;;;5.07;;
41333;SDS011;27078;46.428;6.256;2023-10-19T04:00:29;8.68;;;6.63;;
41333;SDS011;27078;46.428;6.256;2023-10-19T04:02:58;11.55;;;7.30;;
41333;SDS011;27078;46.428;6.256;2023-10-19T04:05:24;10.73;;;6.85;;
41333;SDS011;27078;46.428;6.256;2023-10-19T04:07:51;9.50;;;7.07;;
41333;SDS011;27078;46.428;6.256;2023-10-19T04:10:23;10.43;;;6.97;;
41333;SDS011;27078;46.428;6.256;2023-10-19T04:12:55;9.32;;;6.25;;
41333;SDS011;27078;46.428;6.256;2023-10-19T04:15:22;8.27;;;6.03;;
41333;SDS011;27078;46.428;6.256;2023-10-19T04:17:48;9.40;;;5.82;;
41333;SDS011;27078;46.428;6.256;2023-10-19T04:20:14;9.20;;;6.28;;
41333;SDS011;27078;46.428;6.256;2023-10-19T04:22:44;8.85;;;6.03;;
41333;SDS011;27078;46.428;6.256;2023-10-19T04:25:10;7.63;;;6.20;;
41333;SDS011;27078;46.428;6.256;2023-10-19T04:27:37;8.50;;;6.32;;
41333;SDS011;27078;46.428;6.256;2023-10-19T04:30:07;8.57;;;5.88;;
41333;SDS011;27078;46.428;6.256;2023-10-19T04:32:44;8.80;;;6.50;;
41333;SDS011;27078;46.428;6.256;2023-10-19T04:35:13;8.02;;;6.10;;
41333;SDS011;27078;46.428;6.256;2023-10-19T04:37:46;7.03;;;5.03;;
41333;SDS011;27078;46.428;6.256;2023-10-19T04:40:12;4.70;;;3.80;;
41333;SDS011;27078;46.428;6.256;2023-10-19T04:42:37;5.55;;;4.30;;
41333;SDS011;27078;46.428;6.256;2023-10-19T04:45:06;5.60;;;4.50;;
41333;SDS011;27078;46.428;6.256;2023-10-19T04:47:32;4.60;;;3.80;;
41333;SDS011;27078;46.428;6.256;2023-10-19T04:50:01;3.60;;;3.10;;
41333;SDS011;27078;46.428;6.256;2023-10-19T04:52:26;4.63;;;3.22;;
41333;SDS011;27078;46.428;6.256;2023-10-19T04:54:52;4.30;;;3.20;;
41333;SDS011;27078;46.428;6.256;2023-10-19T04:57:19;4.65;;;3.65;;
41333;SDS011;27078;46.428;6.256;2023-10-19T04:59:45;5.57;;;3.90;;
41333;SDS011;27078;46.428;6.256;2023-10-19T05:02:11;5.35;;;3.70;;
41333;SDS011;27078;46.428;6.256;2023-10-19T05:04:36;7.18;;;4.05;;
41333;SDS011;27078;46.428;6.256;2023-10-19T05:07:02;6.47;;;4.57;;
41333;SDS011;27078;46.428;6.256;2023-10-19T05:09:28;8.30;;;5.55;;
41333;SDS011;27078;46.428;6.256;2023-10-19T05:11:54;10.13;;;6.07;;
41333;SDS011;27078;46.428;6.256;2023-10-19T05:14:20;8.13;;;5.68;;
41333;SDS011;27078;46.428;6.256;2023-10-19T05:16:45;10.02;;;6.07;;
41333;SDS011;27078;46.428;6.256;2023-10-19T05:19:11;7.65;;;5.30;;
41333;SDS011;27078;46.428;6.256;2023-10-19T05:21:36;8.25;;;5.30;;
41333;SDS011;27078;46.428;6.256;2023-10-19T05:24:01;5.60;;;4.40;;
41333;SDS011;27078;46.428;6.256;2023-10-19T05:26:27;7.20;;;5.30;;
41333;SDS011;27078;46.428;6.256;2023-10-19T05:28:52;6.75;;;4.72;;
41333;SDS011;27078;46.428;6.256;2023-10-19T05:31:19;7.10;;;5.00;;
41333;SDS011;27078;46.428;6.256;2023-10-19T05:33:44;8.50;;;5.45;;
41333;SDS011;27078;46.428;6.256;2023-10-19T05:36:10;6.90;;;4.75;;
41333;SDS011;27078;46.428;6.256;2023-10-19T05:38:35;7.68;;;5.35;;
41333;SDS011;27078;46.428;6.256;2023-10-19T05:41:00;7.28;;;5.07;;
41333;SDS011;27078;46.428;6.256;2023-10-19T05:43:26;6.78;;;4.60;;
41333;SDS011;27078;46.428;6.256;2023-10-19T05:45:53;6.20;;;4.78;;
41333;SDS011;27078;46.428;6.256;2023-10-19T05:48:19;7.18;;;4.82;;
41333;SDS011;27078;46.428;6.256;2023-10-19T05:50:45;5.75;;;4.47;;
41333;SDS011;27078;46.428;6.256;2023-10-19T05:53:10;6.95;;;4.60;;
41333;SDS011;27078;46.428;6.256;2023-10-19T05:55:36;5.93;;;4.65;;
41333;SDS011;27078;46.428;6.256;2023-10-19T05:58:01;7.43;;;4.90;;
41333;SDS011;27078;46.428;6.256;2023-10-19T06:00:29;7.47;;;5.10;;
41333;SDS011;27078;46.428;6.256;2023-10-19T06:02:55;7.75;;;4.60;;
41333;SDS011;27078;46.428;6.256;2023-10-19T06:05:22;6.82;;;4.85;;
41333;SDS011;27078;46.428;6.256;2023-10-19T06:07:49;6.40;;;5.10;;
41333;SDS011;27078;46.428;6.256;2023-10-19T06:10:18;6.55;;;5.13;;
41333;SDS011;27078;46.428;6.256;2023-10-19T06:12:46;5.20;;;4.30;;
41333;SDS011;27078;46.428;6.256;2023-10-19T06:15:13;7.05;;;4.18;;
41333;SDS011;27078;46.428;6.256;2023-10-19T06:17:40;5.18;;;4.00;;
41333;SDS011;27078;46.428;6.256;2023-10-19T06:20:07;5.55;;;4.43;;
41333;SDS011;27078;46.428;6.256;2023-10-19T06:22:36;6.75;;;4.20;;
41333;SDS011;27078;46.428;6.256;2023-10-19T06:25:02;5.78;;;4.20;;
41333;SDS011;27078;46.428;6.256;2023-10-19T06:27:30;5.20;;;3.72;;
41333;SDS011;27078;46.428;6.256;2023-10-19T06:29:56;5.55;;;4.07;;
41333;SDS011;27078;46.428;6.256;2023-10-19T06:32:21;5.55;;;4.22;;
41333;SDS011;27078;46.428;6.256;2023-10-19T06:34:47;6.15;;;4.13;;
41333;SDS011;27078;46.428;6.256;2023-10-19T06:37:12;6.68;;;4.63;;
41333;SDS011;27078;46.428;6.256;2023-10-19T06:39:38;6.00;;;3.97;;
41333;SDS011;27078;46.428;6.256;2023-10-19T06:42:06;5.88;;;4.07;;
41333;SDS011;27078;46.428;6.256;2023-10-19T06:44:38;5.97;;;4.22;;
41333;SDS011;27078;46.428;6.256;2023-10-19T06:47:05;6.38;;;4.10;;
41333;SDS011;27078;46.428;6.256;2023-10-19T06:49:31;5.03;;;3.70;;
41333;SDS011;27078;46.428;6.256;2023-10-19T06:51:57;4.13;;;3.03;;
41333;SDS011;27078;46.428;6.256;2023-10-19T06:54:22;3.95;;;2.95;;
41333;SDS011;27078;46.428;6.256;2023-10-19T06:56:48;4.22;;;2.92;;
41333;SDS011;27078;46.428;6.256;2023-10-19T06:59:13;3.63;;;3.03;;
41333;SDS011;27078;46.428;6.256;2023-10-19T07:01:38;4.25;;;2.60;;
41333;SDS011;27078;46.428;6.256;2023-10-19T07:04:04;4.15;;;3.35;;
41333;SDS011;27078;46.428;6.256;2023-10-19T07:06:29;4.95;;;3.63;;
41333;SDS011;27078;46.428;6.256;2023-10-19T07:08:55;4.30;;;3.40;;
41333;SDS011;27078;46.428;6.256;2023-10-19T07:11:21;5.47;;;3.75;;
41333;SDS011;27078;46.428;6.256;2023-10-19T07:13:49;5.38;;;3.40;;
41333;SDS011;27078;46.428;6.256;2023-10-19T07:16:14;6.60;;;3.53;;
41333;SDS011;27078;46.428;6.256;2023-10-19T07:18:40;6.10;;;4.20;;
41333;SDS011;27078;46.428;6.256;2023-10-19T07:21:05;5.35;;;3.20;;
41333;SDS011;27078;46.428;6.256;2023-10-19T07:23:34;4.93;;;2.85;;
41333;SDS011;27078;46.428;6.256;2023-10-19T07:26:02;4.78;;;3.05;;
41333;SDS011;27078;46.428;6.256;2023-10-19T07:28:28;3.85;;;2.63;;
41333;SDS011;27078;46.428;6.256;2023-10-19T07:30:55;5.05;;;2.95;;
41333;SDS011;27078;46.428;6.256;2023-10-19T07:33:21;4.60;;;3.22;;
41333;SDS011;27078;46.428;6.256;2023-10-19T07:35:47;4.47;;;2.60;;
41333;SDS011;27078;46.428;6.256;2023-10-19T07:38:25;5.35;;;3.17;;
41333;SDS011;27078;46.428;6.256;2023-10-19T07:40:51;4.95;;;3.03;;
41333;SDS011;27078;46.428;6.256;2023-10-19T07:43:19;4.65;;;3.28;;
41333;SDS011;27078;46.428;6.256;2023-10-19T07:45:45;6.82;;;3.70;;
41333;SDS011;27078;46.428;6.256;2023-10-19T07:48:12;5.55;;;3.35;;
41333;SDS011;27078;46.428;6.256;2023-10-19T07:50:39;7.97;;;3.63;;
41333;SDS011;27078;46.428;6.256;2023-10-19T07:53:08;5.40;;;2.75;;
41333;SDS011;27078;46.428;6.256;2023-10-19T07:55:34;6.13;;;3.30;;
41333;SDS011;27078;46.428;6.256;2023-10-19T07:58:00;6.15;;;3.50;;
41333;SDS011;27078;46.428;6.256;2023-10-19T08:00:27;7.22;;;3.53;;
41333;SDS011;27078;46.428;6.256;2023-10-19T08:02:54;5.10;;;3.40;;
41333;SDS011;27078;46.428;6.256;2023-10-19T08:05:20;6.03;;;3.80;;
41333;SDS011;27078;46.428;6.256;2023-10-19T08:07:46;5.80;;;3.78;;
41333;SDS011;27078;46.428;6.256;2023-10-19T08:10:13;5.75;;;3.80;;
41333;SDS011;27078;46.428;6.256;2023-10-19T08:12:40;7.78;;;3.97;;
41333;SDS011;27078;46.428;6.256;2023-10-19T08:15:07;6.68;;;4.28;;
41333;SDS011;27078;46.428;6.256;2023-10-19T08:17:36;6.63;;;4.22;;
41333;SDS011;27078;46.428;6.256;2023-10-19T08:20:05;6.57;;;4.03;;
41333;SDS011;27078;46.428;6.256;2023-10-19T08:22:34;6.95;;;3.97;;
41333;SDS011;27078;46.428;6.256;2023-10-19T08:25:03;5.93;;;4.15;;
41333;SDS011;27078;46.428;6.256;2023-10-19T08:27:30;5.32;;;3.85;;
41333;SDS011;27078;46.428;6.256;2023-10-19T08:29:56;6.18;;;4.20;;
41333;SDS011;27078;46.428;6.256;2023-10-19T08:32:21;7.82;;;4.55;;
41333;SDS011;27078;46.428;6.256;2023-10-19T08:34:47;6.07;;;4.00;;
41333;SDS011;27078;46.428;6.256;2023-10-19T08:37:12;6.15;;;4.03;;
41333;SDS011;27078;46.428;6.256;2023-10-19T08:39:38;6.22;;;4.15;;
41333;SDS011;27078;46.428;6.256;2023-10-19T08:42:04;6.25;;;4.75;;
41333;SDS011;27078;46.428;6.256;2023-10-19T08:44:30;5.88;;;4.30;;
41333;SDS011;27078;46.428;6.256;2023-10-19T08:46:56;6.40;;;4.68;;
41333;SDS011;27078;46.428;6.256;2023-10-19T08:49:24;6.28;;;4.65;;
41333;SDS011;27078;46.428;6.256;2023-10-19T08:51:52;6.40;;;4.28;;
41333;SDS011;27078;46.428;6.256;2023-10-19T08:54:19;5.57;;;4.32;;
41333;SDS011;27078;46.428;6.256;2023-10-19T08:56:44;7.85;;;4.90;;
41333;SDS011;27078;46.428;6.256;2023-10-19T08:59:10;7.65;;;5.03;;
41333;SDS011;27078;46.428;6.256;2023-10-19T09:01:36;7.95;;;5.10;;
41333;SDS011;27078;46.428;6.256;2023-10-19T09:04:02;8.30;;;4.80;;
41333;SDS011;27078;46.428;6.256;2023-10-19T09:06:30;8.27;;;5.35;;
41333;SDS011;27078;46.428;6.256;2023-10-19T09:08:56;10.32;;;6.70;;
41333;SDS011;27078;46.428;6.256;2023-10-19T09:11:23;10.13;;;6.88;;
41333;SDS011;27078;46.428;6.256;2023-10-19T09:13:50;11.05;;;6.93;;
41333;SDS011;27078;46.428;6.256;2023-10-19T09:16:17;10.85;;;7.30;;
41333;SDS011;27078;46.428;6.256;2023-10-19T09:18:44;11.13;;;8.02;;
41333;SDS011;27078;46.428;6.256;2023-10-19T09:21:17;10.65;;;7.57;;
41333;SDS011;27078;46.428;6.256;2023-10-19T09:23:52;12.88;;;8.93;;
41333;SDS011;27078;46.428;6.256;2023-10-19T09:26:19;13.80;;;9.77;;
41333;SDS011;27078;46.428;6.256;2023-10-19T09:28:47;14.35;;;9.60;;
41333;SDS011;27078;46.428;6.256;2023-10-19T09:31:13;13.00;;;9.23;;
41333;SDS011;27078;46.428;6.256;2023-10-19T09:33:42;11.00;;;7.85;;
41333;SDS011;27078;46.428;6.256;2023-10-19T09:36:09;10.82;;;7.32;;
41333;SDS011;27078;46.428;6.256;2023-10-19T09:38:47;9.88;;;6.93;;
41333;SDS011;27078;46.428;6.256;2023-10-19T09:41:17;8.48;;;6.13;;
41333;SDS011;27078;46.428;6.256;2023-10-19T09:43:44;9.38;;;6.45;;
41333;SDS011;27078;46.428;6.256;2023-10-19T09:46:11;7.45;;;5.70;;
41333;SDS011;27078;46.428;6.256;2023-10-19T09:48:46;6.00;;;4.65;;
41333;SDS011;27078;46.428;6.256;2023-10-19T09:51:13;7.38;;;4.50;;
41333;SDS011;27078;46.428;6.256;2023-10-19T09:53:41;7.40;;;5.00;;
41333;SDS011;27078;46.428;6.256;2023-10-19T09:56:09;7.90;;;4.30;;
41333;SDS011;27078;46.428;6.256;2023-10-19T09:58:44;6.88;;;4.40;;
41333;SDS011;27078;46.428;6.256;2023-10-19T10:01:11;6.60;;;4.03;;
41333;SDS011;27078;46.428;6.256;2023-10-19T10:06:11;7.78;;;4.20;;
41333;SDS011;27078;46.428;6.256;2023-10-19T10:08:39;8.02;;;4.50;;
41333;SDS011;27078;46.428;6.256;2023-10-19T10:11:19;7.85;;;4.88;;
41333;SDS011;27078;46.428;6.256;2023-10-19T10:13:45;7.88;;;4.60;;
41333;SDS011;27078;46.428;6.256;2023-10-19T10:16:14;6.88;;;4.22;;
41333;SDS011;27078;46.428;6.256;2023-10-19T10:18:40;7.70;;;4.63;;
41333;SDS011;27078;46.428;6.256;2023-10-19T10:21:08;6.40;;;4.43;;
41333;SDS011;27078;46.428;6.256;2023-10-19T10:23:43;6.38;;;4.70;;
41333;SDS011;27078;46.428;6.256;2023-10-19T10:26:10;7.93;;;4.90;;
41333;SDS011;27078;46.428;6.256;2023-10-19T10:28:37;8.32;;;5.20;;
41333;SDS011;27078;46.428;6.256;2023-10-19T10:31:10;9.35;;;5.15;;
41333;SDS011;27078;46.428;6.256;2023-10-19T10:33:45;7.65;;;5.07;;
41333;SDS011;27078;46.428;6.256;2023-10-19T10:36:14;7.80;;;5.05;;
41333;SDS011;27078;46.428;6.256;2023-10-19T10:38:45;8.73;;;5.82;;
41333;SDS011;27078;46.428;6.256;2023-10-19T10:41:11;6.22;;;5.00;;
41333;SDS011;27078;46.428;6.256;2023-10-19T10:46:19;7.88;;;5.05;;
41333;SDS011;27078;46.428;6.256;2023-10-19T10:48:46;7.65;;;5.15;;
41333;SDS011;27078;46.428;6.256;2023-10-19T10:51:17;6.93;;;4.18;;
41333;SDS011;27078;46.428;6.256;2023-10-19T10:53:52;9.32;;;5.45;;
41333;SDS011;27078;46.428;6.256;2023-10-19T10:56:19;7.57;;;5.13;;
41333;SDS011;27078;46.428;6.256;2023-10-19T10:58:48;7.10;;;4.97;;
41333;SDS011;27078;46.428;6.256;2023-10-19T11:01:14;8.10;;;5.40;;
41333;SDS011;27078;46.428;6.256;2023-10-19T11:03:41;8.73;;;5.30;;
41333;SDS011;27078;46.428;6.256;2023-10-19T11:06:07;7.93;;;5.13;;
41333;SDS011;27078;46.428;6.256;2023-10-19T11:08:35;7.18;;;5.63;;
41333;SDS011;27078;46.428;6.256;2023-10-19T11:11:05;9.25;;;5.90;;
41333;SDS011;27078;46.428;6.256;2023-10-19T11:13:32;6.72;;;5.38;;
41333;SDS011;27078;46.428;6.256;2023-10-19T11:16:02;8.55;;;5.32;;
41333;SDS011;27078;46.428;6.256;2023-10-19T11:21:06;10.18;;;5.70;;
41333;SDS011;27078;46.428;6.256;2023-10-19T11:23:41;8.23;;;5.40;;
41333;SDS011;27078;46.428;6.256;2023-10-19T11:26:15;8.13;;;5.13;;
41333;SDS011;27078;46.428;6.256;2023-10-19T11:28:42;5.93;;;3.70;;
41333;SDS011;27078;46.428;6.256;2023-10-19T11:31:14;8.73;;;5.85;;
41333;SDS011;27078;46.428;6.256;2023-10-19T11:33:48;7.15;;;5.88;;
41333;SDS011;27078;46.428;6.256;2023-10-19T11:36:15;9.25;;;6.18;;
41333;SDS011;27078;46.428;6.256;2023-10-19T11:38:45;11.60;;;6.00;;
41333;SDS011;27078;46.428;6.256;2023-10-19T11:41:12;6.43;;;4.60;;
41333;SDS011;27078;46.428;6.256;2023-10-19T11:43:39;7.00;;;4.75;;
41333;SDS011;27078;46.428;6.256;2023-10-19T11:46:06;7.68;;;4.20;;
41333;SDS011;27078;46.428;6.256;2023-10-19T11:48:33;6.60;;;4.30;;
41333;SDS011;27078;46.428;6.256;2023-10-19T11:50:59;7.05;;;4.20;;
41333;SDS011;27078;46.428;6.256;2023-10-19T11:53:25;4.68;;;3.55;;
41333;SDS011;27078;46.428;6.256;2023-10-19T11:55:51;6.25;;;4.63;;
41333;SDS011;27078;46.428;6.256;2023-10-19T11:58:16;5.43;;;4.20;;
41333;SDS011;27078;46.428;6.256;2023-10-19T12:00:42;5.00;;;3.70;;
41333;SDS011;27078;46.428;6.256;2023-10-19T12:03:09;6.15;;;3.85;;
41333;SDS011;27078;46.428;6.256;2023-10-19T12:05:35;5.22;;;3.75;;
41333;SDS011;27078;46.428;6.256;2023-10-19T12:08:02;5.53;;;3.58;;
41333;SDS011;27078;46.428;6.256;2023-10-19T12:10:27;4.75;;;3.45;;
41333;SDS011;27078;46.428;6.256;2023-10-19T12:13:03;5.07;;;3.10;;
41333;SDS011;27078;46.428;6.256;2023-10-19T12:15:31;4.40;;;3.40;;
41333;SDS011;27078;46.428;6.256;2023-10-19T12:17:56;4.03;;;3.42;;
41333;SDS011;27078;46.428;6.256;2023-10-19T12:20:22;6.35;;;3.58;;
41333;SDS011;27078;46.428;6.256;2023-10-19T12:22:47;5.70;;;3.53;;
41333;SDS011;27078;46.428;6.256;2023-10-19T12:25:13;4.70;;;3.20;;
41333;SDS011;27078;46.428;6.256;2023-10-19T12:27:39;5.68;;;3.17;;
41333;SDS011;27078;46.428;6.256;2023-10-19T12:30:06;4.85;;;2.97;;
41333;SDS011;27078;46.428;6.256;2023-10-19T12:32:42;6.38;;;3.90;;
41333;SDS011;27078;46.428;6.256;2023-10-19T12:35:08;5.47;;;3.40;;
41333;SDS011;27078;46.428;6.256;2023-10-19T12:37:37;5.05;;;3.08;;
41333;SDS011;27078;46.428;6.256;2023-10-19T12:40:11;5.47;;;3.80;;
41333;SDS011;27078;46.428;6.256;2023-10-19T12:42:54;5.60;;;3.92;;
41333;SDS011;27078;46.428;6.256;2023-10-19T12:45:24;4.95;;;3.22;;
41333;SDS011;27078;46.428;6.256;2023-10-19T12:47:50;6.47;;;3.60;;
41333;SDS011;27078;46.428;6.256;2023-10-19T12:50:19;6.05;;;3.58;;
41333;SDS011;27078;46.428;6.256;2023-10-19T12:52:51;6.00;;;3.58;;
41333;SDS011;27078;46.428;6.256;2023-10-19T12:55:18;4.55;;;3.22;;
41333;SDS011;27078;46.428;6.256;2023-10-19T12:57:44;5.82;;;3.33;;
41333;SDS011;27078;46.428;6.256;2023-10-19T13:00:10;5.13;;;3.58;;
41333;SDS011;27078;46.428;6.256;2023-10-19T13:02:51;3.92;;;3.03;;
41333;SDS011;27078;46.428;6.256;2023-10-19T13:05:25;6.32;;;3.50;;
41333;SDS011;27078;46.428;6.256;2023-10-19T13:07:51;4.68;;;3.15;;
41333;SDS011;27078;46.428;6.256;2023-10-19T13:10:18;4.13;;;2.78;;
41333;SDS011;27078;46.428;6.256;2023-10-19T13:12:43;6.53;;;3.17;;
41333;SDS011;27078;46.428;6.256;2023-10-19T13:15:09;5.72;;;3.25;;
41333;SDS011;27078;46.428;6.256;2023-10-19T13:17:39;3.72;;;2.90;;
41333;SDS011;27078;46.428;6.256;2023-10-19T13:20:05;4.47;;;3.03;;
41333;SDS011;27078;46.428;6.256;2023-10-19T13:22:41;5.40;;;3.00;;
41333;SDS011;27078;46.428;6.256;2023-10-19T13:25:07;5.13;;;3.15;;
41333;SDS011;27078;46.428;6.256;2023-10-19T13:27:34;5.10;;;3.38;;
41333;SDS011;27078;46.428;6.256;2023-10-19T13:30:00;6.45;;;3.50;;
41333;SDS011;27078;46.428;6.256;2023-10-19T13:32:28;4.78;;;3.03;;
41333;SDS011;27078;46.428;6.256;2023-10-19T13:34:54;5.93;;;3.00;;
41333;SDS011;27078;46.428;6.256;2023-10-19T13:37:20;5.82;;;3.50;;
41333;SDS011;27078;46.428;6.256;2023-10-19T13:39:45;5.63;;;2.95;;
41333;SDS011;27078;46.428;6.256;2023-10-19T13:42:11;5.97;;;2.90;;
41333;SDS011;27078;46.428;6.256;2023-10-19T13:44:36;5.22;;;3.42;;
41333;SDS011;27078;46.428;6.256;2023-10-19T13:47:02;6.43;;;3.70;;
41333;SDS011;27078;46.428;6.256;2023-10-19T13:49:31;7.63;;;3.80;;
41333;SDS011;27078;46.428;6.256;2023-10-19T13:51:57;4.70;;;3.70;;
41333;SDS011;27078;46.428;6.256;2023-10-19T13:54:23;5.03;;;3.78;;
41333;SDS011;27078;46.428;6.256;2023-10-19T13:56:48;6.75;;;3.83;;
41333;SDS011;27078;46.428;6.256;2023-10-19T13:59:13;6.05;;;3.70;;
41333;SDS011;27078;46.428;6.256;2023-10-19T14:01:40;6.32;;;3.80;;
41333;SDS011;27078;46.428;6.256;2023-10-19T14:04:06;7.00;;;4.10;;
41333;SDS011;27078;46.428;6.256;2023-10-19T14:06:31;5.43;;;4.38;;
41333;SDS011;27078;46.428;6.256;2023-10-19T14:08:56;6.40;;;4.22;;
41333;SDS011;27078;46.428;6.256;2023-10-19T14:11:22;5.47;;;3.78;;
41333;SDS011;27078;46.428;6.256;2023-10-19T14:13:48;4.60;;;3.28;;
41333;SDS011;27078;46.428;6.256;2023-10-19T14:16:15;5.85;;;4.00;;
41333;SDS011;27078;46.428;6.256;2023-10-19T14:18:41;5.60;;;3.65;;
41333;SDS011;27078;46.428;6.256;2023-10-19T14:21:15;4.82;;;4.00;;
41333;SDS011;27078;46.428;6.256;2023-10-19T14:23:41;7.65;;;4.68;;
41333;SDS011;27078;46.428;6.256;2023-10-19T14:26:08;7.03;;;3.92;;
41333;SDS011;27078;46.428;6.256;2023-10-19T14:28:34;5.93;;;4.50;;
41333;SDS011;27078;46.428;6.256;2023-10-19T14:31:00;8.15;;;4.88;;
41333;SDS011;27078;46.428;6.256;2023-10-19T14:33:27;9.05;;;4.65;;
41333;SDS011;27078;46.428;6.256;2023-10-19T14:35:52;8.82;;;5.13;;
41333;SDS011;27078;46.428;6.256;2023-10-19T14:38:18;11.23;;;5.47;;
41333;SDS011;27078;46.428;6.256;2023-10-19T14:40:44;11.20;;;4.45;;
41333;SDS011;27078;46.428;6.256;2023-10-19T14:43:13;7.22;;;4.80;;
41333;SDS011;27078;46.428;6.256;2023-10-19T14:45:39;7.55;;;4.40;;
41333;SDS011;27078;46.428;6.256;2023-10-19T14:48:06;9.13;;;3.92;;
41333;SDS011;27078;46.428;6.256;2023-10-19T14:50:33;8.27;;;4.00;;
41333;SDS011;27078;46.428;6.256;2023-10-19T14:53:00;7.38;;;3.67;;
41333;SDS011;27078;46.428;6.256;2023-10-19T14:55:25;4.75;;;3.60;;
41333;SDS011;27078;46.428;6.256;2023-10-19T14:57:54;9.00;;;3.70;;